sensor_id;sensor_type;location;lat;lon;timestamp;P1;durP1;ratioP1;P2;durP2;ratioP2
5912;SDS011;2982;42.684;23.356;2023-07-13T00:01:45;3.70;;;3.35;;
5912;SDS011;2982;42.684;23.356;2023-07-13T00:04:10;4.28;;;3.88;;
5912;SDS011;2982;42.684;23.356;2023-07-13T00:06:35;5.20;;;3.58;;
5912;SDS011;2982;42.684;23.356;2023-07-13T00:09:01;4.40;;;4.00;;
5912;SDS011;2982;42.684;23.356;2023-07-13T00:11:26;5.35;;;3.47;;
5912;SDS011;2982;42.684;23.356;2023-07-13T00:13:52;8.23;;;3.40;;
5912;SDS011;2982;42.684;23.356;2023-07-13T00:16:17;4.35;;;3.50;;
5912;SDS011;2982;42.684;23.356;2023-07-13T00:18:43;6.53;;;3.63;;
5912;SDS011;2982;42.684;23.356;2023-07-13T00:21:08;6.10;;;3.40;;
5912;SDS011;2982;42.684;23.356;2023-07-13T00:23:34;4.05;;;3.70;;
5912;SDS011;2982;42.684;23.356;2023-07-13T00:26:00;4.28;;;3.90;;
5912;SDS011;2982;42.684;23.356;2023-07-13T00:28:26;5.28;;;3.70;;
5912;SDS011;2982;42.684;23.356;2023-07-13T00:30:52;8.30;;;4.10;;
5912;SDS011;2982;42.684;23.356;2023-07-13T00:33:17;8.93;;;3.78;;
5912;SDS011;2982;42.684;23.356;2023-07-13T00:35:42;3.90;;;3.60;;
5912;SDS011;2982;42.684;23.356;2023-07-13T00:38:08;4.38;;;3.97;;
5912;SDS011;2982;42.684;23.356;2023-07-13T00:40:33;8.82;;;3.80;;
5912;SDS011;2982;42.684;23.356;2023-07-13T00:42:59;5.10;;;4.35;;
5912;SDS011;2982;42.684;23.356;2023-07-13T00:47:49;5.97;;;3.97;;
5912;SDS011;2982;42.684;23.356;2023-07-13T00:50:15;4.93;;;4.10;;
5912;SDS011;2982;42.684;23.356;2023-07-13T00:52:43;10.35;;;5.00;;
5912;SDS011;2982;42.684;23.356;2023-07-13T00:55:11;4.43;;;4.03;;
5912;SDS011;2982;42.684;23.356;2023-07-13T00:57:39;6.95;;;4.57;;
5912;SDS011;2982;42.684;23.356;2023-07-13T01:00:06;4.45;;;4.05;;
5912;SDS011;2982;42.684;23.356;2023-07-13T01:02:33;4.53;;;4.18;;
5912;SDS011;2982;42.684;23.356;2023-07-13T01:04:59;5.05;;;4.32;;
5912;SDS011;2982;42.684;23.356;2023-07-13T01:07:25;6.25;;;4.57;;
5912;SDS011;2982;42.684;23.356;2023-07-13T01:09:50;6.20;;;4.43;;
5912;SDS011;2982;42.684;23.356;2023-07-13T01:12:16;9.18;;;4.93;;
5912;SDS011;2982;42.684;23.356;2023-07-13T01:14:41;7.47;;;4.60;;
5912;SDS011;2982;42.684;23.356;2023-07-13T01:17:08;5.63;;;4.68;;
5912;SDS011;2982;42.684;23.356;2023-07-13T01:19:40;5.20;;;4.70;;
5912;SDS011;2982;42.684;23.356;2023-07-13T01:22:11;6.25;;;4.63;;
5912;SDS011;2982;42.684;23.356;2023-07-13T01:24:39;6.97;;;4.22;;
5912;SDS011;2982;42.684;23.356;2023-07-13T01:27:06;4.65;;;4.35;;
5912;SDS011;2982;42.684;23.356;2023-07-13T01:29:33;8.82;;;4.70;;
5912;SDS011;2982;42.684;23.356;2023-07-13T01:31:59;6.30;;;4.68;;
5912;SDS011;2982;42.684;23.356;2023-07-13T01:34:25;7.07;;;4.55;;
5912;SDS011;2982;42.684;23.356;2023-07-13T01:36:51;6.13;;;4.65;;
5912;SDS011;2982;42.684;23.356;2023-07-13T01:39:17;5.60;;;5.18;;
5912;SDS011;2982;42.684;23.356;2023-07-13T01:41:42;6.50;;;4.82;;
5912;SDS011;2982;42.684;23.356;2023-07-13T01:44:07;6.15;;;4.90;;
5912;SDS011;2982;42.684;23.356;2023-07-13T01:46:33;8.43;;;5.45;;
5912;SDS011;2982;42.684;23.356;2023-07-13T01:48:58;9.60;;;6.00;;
5912;SDS011;2982;42.684;23.356;2023-07-13T01:51:23;5.60;;;5.15;;
5912;SDS011;2982;42.684;23.356;2023-07-13T01:53:49;6.80;;;5.28;;
5912;SDS011;2982;42.684;23.356;2023-07-13T01:56:14;6.65;;;5.78;;
5912;SDS011;2982;42.684;23.356;2023-07-13T01:58:39;7.95;;;5.50;;
5912;SDS011;2982;42.684;23.356;2023-07-13T02:01:05;6.28;;;5.65;;
5912;SDS011;2982;42.684;23.356;2023-07-13T02:03:30;9.27;;;5.88;;
5912;SDS011;2982;42.684;23.356;2023-07-13T02:05:55;6.93;;;5.13;;
5912;SDS011;2982;42.684;23.356;2023-07-13T02:08:21;7.07;;;5.57;;
5912;SDS011;2982;42.684;23.356;2023-07-13T02:10:46;11.98;;;5.65;;
5912;SDS011;2982;42.684;23.356;2023-07-13T02:13:11;19.85;;;5.07;;
5912;SDS011;2982;42.684;23.356;2023-07-13T02:15:39;6.68;;;5.50;;
5912;SDS011;2982;42.684;23.356;2023-07-13T02:18:05;7.47;;;6.32;;
5912;SDS011;2982;42.684;23.356;2023-07-13T02:20:30;5.63;;;5.15;;
5912;SDS011;2982;42.684;23.356;2023-07-13T02:22:55;11.10;;;5.72;;
5912;SDS011;2982;42.684;23.356;2023-07-13T02:25:21;5.80;;;5.30;;
5912;SDS011;2982;42.684;23.356;2023-07-13T02:27:46;12.93;;;5.82;;
5912;SDS011;2982;42.684;23.356;2023-07-13T02:30:11;5.95;;;5.07;;
5912;SDS011;2982;42.684;23.356;2023-07-13T02:32:37;9.30;;;4.70;;
5912;SDS011;2982;42.684;23.356;2023-07-13T02:35:02;9.63;;;4.97;;
5912;SDS011;2982;42.684;23.356;2023-07-13T02:37:28;6.25;;;4.85;;
5912;SDS011;2982;42.684;23.356;2023-07-13T02:39:53;5.45;;;5.00;;
5912;SDS011;2982;42.684;23.356;2023-07-13T02:42:18;5.10;;;4.47;;
5912;SDS011;2982;42.684;23.356;2023-07-13T02:44:44;9.07;;;5.25;;
5912;SDS011;2982;42.684;23.356;2023-07-13T02:47:09;6.03;;;5.43;;
5912;SDS011;2982;42.684;23.356;2023-07-13T02:49:34;8.90;;;5.28;;
5912;SDS011;2982;42.684;23.356;2023-07-13T02:52:00;6.03;;;5.25;;
5912;SDS011;2982;42.684;23.356;2023-07-13T02:54:25;6.25;;;4.75;;
5912;SDS011;2982;42.684;23.356;2023-07-13T02:56:52;7.82;;;5.32;;
5912;SDS011;2982;42.684;23.356;2023-07-13T02:59:18;6.53;;;5.93;;
5912;SDS011;2982;42.684;23.356;2023-07-13T03:01:43;7.35;;;5.10;;
5912;SDS011;2982;42.684;23.356;2023-07-13T03:04:25;6.20;;;4.88;;
5912;SDS011;2982;42.684;23.356;2023-07-13T03:06:51;6.43;;;4.82;;
5912;SDS011;2982;42.684;23.356;2023-07-13T03:09:16;6.13;;;4.95;;
5912;SDS011;2982;42.684;23.356;2023-07-13T03:11:41;13.15;;;5.40;;
5912;SDS011;2982;42.684;23.356;2023-07-13T03:14:07;5.75;;;5.25;;
5912;SDS011;2982;42.684;23.356;2023-07-13T03:16:33;6.35;;;5.68;;
5912;SDS011;2982;42.684;23.356;2023-07-13T03:18:58;8.75;;;5.50;;
5912;SDS011;2982;42.684;23.356;2023-07-13T03:21:24;7.13;;;6.43;;
5912;SDS011;2982;42.684;23.356;2023-07-13T03:23:49;11.50;;;7.05;;
5912;SDS011;2982;42.684;23.356;2023-07-13T03:26:15;9.18;;;6.63;;
5912;SDS011;2982;42.684;23.356;2023-07-13T03:28:43;7.10;;;6.05;;
5912;SDS011;2982;42.684;23.356;2023-07-13T03:31:13;7.72;;;5.15;;
5912;SDS011;2982;42.684;23.356;2023-07-13T03:33:41;6.47;;;5.88;;
5912;SDS011;2982;42.684;23.356;2023-07-13T03:36:07;6.40;;;5.80;;
5912;SDS011;2982;42.684;23.356;2023-07-13T03:38:34;8.90;;;5.70;;
5912;SDS011;2982;42.684;23.356;2023-07-13T03:41:00;7.78;;;6.40;;
5912;SDS011;2982;42.684;23.356;2023-07-13T03:43:25;7.25;;;5.65;;
5912;SDS011;2982;42.684;23.356;2023-07-13T03:45:50;6.30;;;5.80;;
5912;SDS011;2982;42.684;23.356;2023-07-13T03:48:16;6.45;;;5.93;;
5912;SDS011;2982;42.684;23.356;2023-07-13T03:50:41;6.57;;;6.00;;
5912;SDS011;2982;42.684;23.356;2023-07-13T03:53:06;13.30;;;6.55;;
5912;SDS011;2982;42.684;23.356;2023-07-13T03:55:32;9.07;;;6.18;;
5912;SDS011;2982;42.684;23.356;2023-07-13T03:57:58;6.85;;;6.30;;
5912;SDS011;2982;42.684;23.356;2023-07-13T04:00:25;11.23;;;6.35;;
5912;SDS011;2982;42.684;23.356;2023-07-13T04:02:50;7.43;;;6.55;;
5912;SDS011;2982;42.684;23.356;2023-07-13T04:05:16;9.18;;;6.60;;
5912;SDS011;2982;42.684;23.356;2023-07-13T04:07:41;10.30;;;7.28;;
5912;SDS011;2982;42.684;23.356;2023-07-13T04:10:07;11.57;;;7.30;;
5912;SDS011;2982;42.684;23.356;2023-07-13T04:12:32;7.25;;;6.65;;
5912;SDS011;2982;42.684;23.356;2023-07-13T04:14:58;11.48;;;7.97;;
5912;SDS011;2982;42.684;23.356;2023-07-13T04:17:23;8.93;;;8.10;;
5912;SDS011;2982;42.684;23.356;2023-07-13T04:19:49;15.52;;;8.38;;
5912;SDS011;2982;42.684;23.356;2023-07-13T04:22:14;11.80;;;7.95;;
5912;SDS011;2982;42.684;23.356;2023-07-13T04:24:39;8.30;;;7.70;;
5912;SDS011;2982;42.684;23.356;2023-07-13T04:27:05;8.82;;;7.70;;
5912;SDS011;2982;42.684;23.356;2023-07-13T04:29:30;7.65;;;6.80;;
5912;SDS011;2982;42.684;23.356;2023-07-13T04:31:55;8.38;;;6.65;;
5912;SDS011;2982;42.684;23.356;2023-07-13T04:34:21;7.47;;;6.75;;
5912;SDS011;2982;42.684;23.356;2023-07-13T04:36:46;9.77;;;6.90;;
5912;SDS011;2982;42.684;23.356;2023-07-13T04:39:11;9.27;;;7.88;;
5912;SDS011;2982;42.684;23.356;2023-07-13T04:41:37;9.05;;;7.18;;
5912;SDS011;2982;42.684;23.356;2023-07-13T04:44:02;8.38;;;6.65;;
5912;SDS011;2982;42.684;23.356;2023-07-13T04:46:27;6.93;;;6.30;;
5912;SDS011;2982;42.684;23.356;2023-07-13T04:48:53;7.70;;;6.97;;
5912;SDS011;2982;42.684;23.356;2023-07-13T04:51:18;8.65;;;7.57;;
5912;SDS011;2982;42.684;23.356;2023-07-13T04:53:44;8.48;;;7.25;;
5912;SDS011;2982;42.684;23.356;2023-07-13T04:56:09;7.70;;;6.95;;
5912;SDS011;2982;42.684;23.356;2023-07-13T04:58:34;8.43;;;7.63;;
5912;SDS011;2982;42.684;23.356;2023-07-13T05:01:00;8.25;;;7.45;;
5912;SDS011;2982;42.684;23.356;2023-07-13T05:03:30;7.70;;;7.00;;
5912;SDS011;2982;42.684;23.356;2023-07-13T05:05:56;8.20;;;6.68;;
5912;SDS011;2982;42.684;23.356;2023-07-13T05:08:23;8.35;;;7.85;;
5912;SDS011;2982;42.684;23.356;2023-07-13T05:10:49;9.10;;;7.47;;
5912;SDS011;2982;42.684;23.356;2023-07-13T05:13:15;7.45;;;6.78;;
5912;SDS011;2982;42.684;23.356;2023-07-13T05:15:41;7.63;;;6.95;;
5912;SDS011;2982;42.684;23.356;2023-07-13T05:18:06;12.77;;;8.10;;
5912;SDS011;2982;42.684;23.356;2023-07-13T05:20:31;12.77;;;7.50;;
5912;SDS011;2982;42.684;23.356;2023-07-13T05:22:56;14.65;;;8.63;;
5912;SDS011;2982;42.684;23.356;2023-07-13T05:25:22;14.93;;;9.48;;
5912;SDS011;2982;42.684;23.356;2023-07-13T05:27:47;9.20;;;8.35;;
5912;SDS011;2982;42.684;23.356;2023-07-13T05:30:12;10.13;;;7.65;;
5912;SDS011;2982;42.684;23.356;2023-07-13T05:32:38;12.80;;;8.38;;
5912;SDS011;2982;42.684;23.356;2023-07-13T05:35:04;10.68;;;8.27;;
5912;SDS011;2982;42.684;23.356;2023-07-13T05:37:30;8.73;;;7.50;;
5912;SDS011;2982;42.684;23.356;2023-07-13T05:39:55;8.73;;;7.82;;
5912;SDS011;2982;42.684;23.356;2023-07-13T05:42:20;11.93;;;7.50;;
5912;SDS011;2982;42.684;23.356;2023-07-13T05:44:46;72.88;;;12.30;;
5912;SDS011;2982;42.684;23.356;2023-07-13T05:47:11;10.63;;;8.38;;
5912;SDS011;2982;42.684;23.356;2023-07-13T05:49:36;10.43;;;7.82;;
5912;SDS011;2982;42.684;23.356;2023-07-13T05:52:01;8.38;;;7.20;;
5912;SDS011;2982;42.684;23.356;2023-07-13T05:54:27;14.40;;;7.75;;
5912;SDS011;2982;42.684;23.356;2023-07-13T05:56:52;10.73;;;8.32;;
5912;SDS011;2982;42.684;23.356;2023-07-13T05:59:17;8.18;;;7.35;;
5912;SDS011;2982;42.684;23.356;2023-07-13T06:01:43;13.27;;;7.68;;
5912;SDS011;2982;42.684;23.356;2023-07-13T06:04:08;9.93;;;7.50;;
5912;SDS011;2982;42.684;23.356;2023-07-13T06:06:33;10.60;;;7.28;;
5912;SDS011;2982;42.684;23.356;2023-07-13T06:08:59;11.63;;;8.18;;
5912;SDS011;2982;42.684;23.356;2023-07-13T06:11:25;9.57;;;7.25;;
5912;SDS011;2982;42.684;23.356;2023-07-13T06:13:51;7.65;;;7.05;;
5912;SDS011;2982;42.684;23.356;2023-07-13T06:16:17;10.48;;;7.47;;
5912;SDS011;2982;42.684;23.356;2023-07-13T06:18:43;7.60;;;6.63;;
5912;SDS011;2982;42.684;23.356;2023-07-13T06:21:09;8.80;;;6.78;;
5912;SDS011;2982;42.684;23.356;2023-07-13T06:23:37;10.27;;;7.35;;
5912;SDS011;2982;42.684;23.356;2023-07-13T06:26:03;13.32;;;7.72;;
5912;SDS011;2982;42.684;23.356;2023-07-13T06:28:29;10.85;;;7.05;;
5912;SDS011;2982;42.684;23.356;2023-07-13T06:30:54;9.80;;;5.80;;
5912;SDS011;2982;42.684;23.356;2023-07-13T06:33:19;6.03;;;5.63;;
5912;SDS011;2982;42.684;23.356;2023-07-13T06:35:45;7.45;;;6.25;;
5912;SDS011;2982;42.684;23.356;2023-07-13T06:38:10;10.23;;;6.35;;
5912;SDS011;2982;42.684;23.356;2023-07-13T06:40:35;9.18;;;6.07;;
5912;SDS011;2982;42.684;23.356;2023-07-13T06:43:01;10.63;;;5.97;;
5912;SDS011;2982;42.684;23.356;2023-07-13T06:45:26;8.35;;;6.10;;
5912;SDS011;2982;42.684;23.356;2023-07-13T06:47:51;11.02;;;5.90;;
5912;SDS011;2982;42.684;23.356;2023-07-13T06:50:16;8.20;;;7.20;;
5912;SDS011;2982;42.684;23.356;2023-07-13T06:52:42;8.52;;;6.70;;
5912;SDS011;2982;42.684;23.356;2023-07-13T06:55:07;7.15;;;6.47;;
5912;SDS011;2982;42.684;23.356;2023-07-13T06:57:33;10.20;;;6.05;;
5912;SDS011;2982;42.684;23.356;2023-07-13T06:59:58;7.95;;;5.55;;
5912;SDS011;2982;42.684;23.356;2023-07-13T07:02:24;7.50;;;6.90;;
5912;SDS011;2982;42.684;23.356;2023-07-13T07:04:49;7.85;;;6.95;;
5912;SDS011;2982;42.684;23.356;2023-07-13T07:07:14;8.50;;;6.63;;
5912;SDS011;2982;42.684;23.356;2023-07-13T07:09:39;9.52;;;7.68;;
5912;SDS011;2982;42.684;23.356;2023-07-13T07:12:05;10.05;;;6.80;;
5912;SDS011;2982;42.684;23.356;2023-07-13T07:14:31;11.43;;;7.45;;
5912;SDS011;2982;42.684;23.356;2023-07-13T07:16:56;6.65;;;6.15;;
5912;SDS011;2982;42.684;23.356;2023-07-13T07:19:22;7.80;;;6.75;;
5912;SDS011;2982;42.684;23.356;2023-07-13T07:21:47;14.43;;;7.47;;
5912;SDS011;2982;42.684;23.356;2023-07-13T07:24:12;7.45;;;6.50;;
5912;SDS011;2982;42.684;23.356;2023-07-13T07:26:37;10.25;;;7.00;;
5912;SDS011;2982;42.684;23.356;2023-07-13T07:29:03;7.97;;;7.38;;
5912;SDS011;2982;42.684;23.356;2023-07-13T07:31:28;7.50;;;6.85;;
5912;SDS011;2982;42.684;23.356;2023-07-13T07:33:53;10.77;;;7.80;;
5912;SDS011;2982;42.684;23.356;2023-07-13T07:36:18;9.38;;;7.35;;
5912;SDS011;2982;42.684;23.356;2023-07-13T07:38:44;9.77;;;7.88;;
5912;SDS011;2982;42.684;23.356;2023-07-13T07:41:09;11.38;;;7.15;;
5912;SDS011;2982;42.684;23.356;2023-07-13T07:43:35;11.02;;;6.40;;
5912;SDS011;2982;42.684;23.356;2023-07-13T07:46:01;6.57;;;5.97;;
5912;SDS011;2982;42.684;23.356;2023-07-13T07:48:27;14.57;;;8.52;;
5912;SDS011;2982;42.684;23.356;2023-07-13T07:50:52;8.13;;;6.80;;
5912;SDS011;2982;42.684;23.356;2023-07-13T07:53:18;10.57;;;6.78;;
5912;SDS011;2982;42.684;23.356;2023-07-13T07:55:43;10.85;;;7.18;;
5912;SDS011;2982;42.684;23.356;2023-07-13T07:58:08;9.13;;;6.32;;
5912;SDS011;2982;42.684;23.356;2023-07-13T08:00:35;10.27;;;6.60;;
5912;SDS011;2982;42.684;23.356;2023-07-13T08:03:00;12.27;;;7.38;;
5912;SDS011;2982;42.684;23.356;2023-07-13T08:05:26;9.70;;;7.13;;
5912;SDS011;2982;42.684;23.356;2023-07-13T08:07:51;9.75;;;7.78;;
5912;SDS011;2982;42.684;23.356;2023-07-13T08:10:17;9.02;;;7.00;;
5912;SDS011;2982;42.684;23.356;2023-07-13T08:12:42;18.75;;;7.35;;
5912;SDS011;2982;42.684;23.356;2023-07-13T08:15:12;7.57;;;6.13;;
5912;SDS011;2982;42.684;23.356;2023-07-13T08:17:39;12.32;;;7.90;;
5912;SDS011;2982;42.684;23.356;2023-07-13T08:20:04;8.35;;;6.97;;
5912;SDS011;2982;42.684;23.356;2023-07-13T08:22:30;8.27;;;7.40;;
5912;SDS011;2982;42.684;23.356;2023-07-13T08:24:55;10.48;;;7.95;;
5912;SDS011;2982;42.684;23.356;2023-07-13T08:27:21;10.88;;;7.90;;
5912;SDS011;2982;42.684;23.356;2023-07-13T08:29:48;8.38;;;7.57;;
5912;SDS011;2982;42.684;23.356;2023-07-13T08:32:14;8.00;;;7.15;;
5912;SDS011;2982;42.684;23.356;2023-07-13T08:34:39;8.13;;;7.38;;
5912;SDS011;2982;42.684;23.356;2023-07-13T08:37:05;11.02;;;6.80;;
5912;SDS011;2982;42.684;23.356;2023-07-13T08:39:31;8.00;;;7.05;;
5912;SDS011;2982;42.684;23.356;2023-07-13T08:42:07;10.27;;;7.13;;
5912;SDS011;2982;42.684;23.356;2023-07-13T08:47:10;12.07;;;8.32;;
5912;SDS011;2982;42.684;23.356;2023-07-13T08:49:40;24.92;;;9.30;;
5912;SDS011;2982;42.684;23.356;2023-07-13T08:52:31;14.30;;;8.43;;
5912;SDS011;2982;42.684;23.356;2023-07-13T08:55:02;34.78;;;12.68;;
5912;SDS011;2982;42.684;23.356;2023-07-13T08:57:34;13.32;;;8.88;;
5912;SDS011;2982;42.684;23.356;2023-07-13T09:00:00;11.70;;;6.88;;
5912;SDS011;2982;42.684;23.356;2023-07-13T09:02:26;9.00;;;7.85;;
5912;SDS011;2982;42.684;23.356;2023-07-13T09:05:10;13.90;;;7.20;;
5912;SDS011;2982;42.684;23.356;2023-07-13T09:10:30;18.05;;;8.45;;
5912;SDS011;2982;42.684;23.356;2023-07-13T09:13:17;13.60;;;7.30;;
5912;SDS011;2982;42.684;23.356;2023-07-13T09:15:58;8.93;;;7.32;;
5912;SDS011;2982;42.684;23.356;2023-07-13T09:24:34;13.10;;;7.43;;
5912;SDS011;2982;42.684;23.356;2023-07-13T09:27:01;9.75;;;7.15;;
5912;SDS011;2982;42.684;23.356;2023-07-13T09:29:50;9.55;;;7.47;;
5912;SDS011;2982;42.684;23.356;2023-07-13T09:32:38;9.50;;;7.32;;
5912;SDS011;2982;42.684;23.356;2023-07-13T09:35:12;14.38;;;7.63;;
5912;SDS011;2982;42.684;23.356;2023-07-13T09:37:42;9.45;;;8.48;;
5912;SDS011;2982;42.684;23.356;2023-07-13T09:40:11;7.60;;;6.82;;
5912;SDS011;2982;42.684;23.356;2023-07-13T09:42:57;9.60;;;6.97;;
5912;SDS011;2982;42.684;23.356;2023-07-13T09:45:27;13.80;;;7.40;;
5912;SDS011;2982;42.684;23.356;2023-07-13T09:48:04;12.38;;;7.18;;
5912;SDS011;2982;42.684;23.356;2023-07-13T09:50:37;13.70;;;7.13;;
5912;SDS011;2982;42.684;23.356;2023-07-13T09:53:02;11.18;;;7.88;;
5912;SDS011;2982;42.684;23.356;2023-07-13T09:55:32;12.05;;;7.55;;
5912;SDS011;2982;42.684;23.356;2023-07-13T09:58:03;9.88;;;6.90;;
5912;SDS011;2982;42.684;23.356;2023-07-13T10:00:59;10.38;;;7.82;;
5912;SDS011;2982;42.684;23.356;2023-07-13T10:03:27;7.75;;;6.85;;
5912;SDS011;2982;42.684;23.356;2023-07-13T10:05:55;12.23;;;6.50;;
5912;SDS011;2982;42.684;23.356;2023-07-13T10:08:29;8.75;;;7.25;;
5912;SDS011;2982;42.684;23.356;2023-07-13T10:11:09;6.90;;;6.35;;
5912;SDS011;2982;42.684;23.356;2023-07-13T10:13:40;11.15;;;7.65;;
5912;SDS011;2982;42.684;23.356;2023-07-13T10:16:08;12.23;;;7.03;;
5912;SDS011;2982;42.684;23.356;2023-07-13T10:18:39;12.35;;;7.78;;
5912;SDS011;2982;42.684;23.356;2023-07-13T10:21:43;8.85;;;6.25;;
5912;SDS011;2982;42.684;23.356;2023-07-13T10:24:13;8.20;;;6.32;;
5912;SDS011;2982;42.684;23.356;2023-07-13T10:26:46;7.63;;;5.90;;
5912;SDS011;2982;42.684;23.356;2023-07-13T10:29:17;9.02;;;6.60;;
5912;SDS011;2982;42.684;23.356;2023-07-13T10:31:44;7.82;;;5.90;;
5912;SDS011;2982;42.684;23.356;2023-07-13T10:34:13;7.70;;;6.47;;
5912;SDS011;2982;42.684;23.356;2023-07-13T10:36:40;13.32;;;5.90;;
5912;SDS011;2982;42.684;23.356;2023-07-13T10:39:09;8.50;;;5.40;;
5912;SDS011;2982;42.684;23.356;2023-07-13T10:41:46;8.80;;;4.00;;
5912;SDS011;2982;42.684;23.356;2023-07-13T10:44:21;6.93;;;4.15;;
5912;SDS011;2982;42.684;23.356;2023-07-13T10:46:50;8.35;;;4.30;;
5912;SDS011;2982;42.684;23.356;2023-07-13T10:49:19;6.93;;;4.35;;
5912;SDS011;2982;42.684;23.356;2023-07-13T10:51:45;6.18;;;4.47;;
5912;SDS011;2982;42.684;23.356;2023-07-13T10:56:41;8.48;;;4.13;;
5912;SDS011;2982;42.684;23.356;2023-07-13T10:59:18;10.35;;;5.40;;
5912;SDS011;2982;42.684;23.356;2023-07-13T11:01:55;5.40;;;4.10;;
5912;SDS011;2982;42.684;23.356;2023-07-13T11:04:47;4.32;;;3.92;;
5912;SDS011;2982;42.684;23.356;2023-07-13T11:07:21;9.90;;;4.55;;
5912;SDS011;2982;42.684;23.356;2023-07-13T11:09:51;6.22;;;4.10;;
5912;SDS011;2982;42.684;23.356;2023-07-13T11:19:50;6.22;;;3.60;;
5912;SDS011;2982;42.684;23.356;2023-07-13T11:22:16;5.35;;;4.30;;
5912;SDS011;2982;42.684;23.356;2023-07-13T11:27:33;5.35;;;4.25;;
5912;SDS011;2982;42.684;23.356;2023-07-13T11:30:21;6.85;;;4.30;;
5912;SDS011;2982;42.684;23.356;2023-07-13T11:33:11;5.57;;;4.10;;
5912;SDS011;2982;42.684;23.356;2023-07-13T11:36:21;5.78;;;4.32;;
5912;SDS011;2982;42.684;23.356;2023-07-13T11:38:35;5.47;;;4.35;;
5912;SDS011;2982;42.684;23.356;2023-07-13T11:41:04;6.38;;;4.28;;
5912;SDS011;2982;42.684;23.356;2023-07-13T11:43:40;8.07;;;4.20;;
5912;SDS011;2982;42.684;23.356;2023-07-13T11:46:13;6.10;;;4.45;;
5912;SDS011;2982;42.684;23.356;2023-07-13T11:48:49;4.15;;;3.85;;
5912;SDS011;2982;42.684;23.356;2023-07-13T11:51:18;8.60;;;4.93;;
5912;SDS011;2982;42.684;23.356;2023-07-13T11:53:45;7.15;;;4.43;;
5912;SDS011;2982;42.684;23.356;2023-07-13T11:56:12;5.75;;;4.32;;
5912;SDS011;2982;42.684;23.356;2023-07-13T11:58:38;5.53;;;4.78;;
5912;SDS011;2982;42.684;23.356;2023-07-13T12:01:04;4.78;;;4.32;;
5912;SDS011;2982;42.684;23.356;2023-07-13T12:03:30;8.15;;;4.43;;
5912;SDS011;2982;42.684;23.356;2023-07-13T12:05:58;4.88;;;4.45;;
5912;SDS011;2982;42.684;23.356;2023-07-13T12:08:25;4.60;;;4.25;;
5912;SDS011;2982;42.684;23.356;2023-07-13T12:10:58;10.27;;;3.92;;
5912;SDS011;2982;42.684;23.356;2023-07-13T12:13:26;12.63;;;4.65;;
5912;SDS011;2982;42.684;23.356;2023-07-13T12:15:52;7.07;;;4.50;;
5912;SDS011;2982;42.684;23.356;2023-07-13T12:18:21;6.18;;;4.15;;
5912;SDS011;2982;42.684;23.356;2023-07-13T12:20:48;6.75;;;4.30;;
5912;SDS011;2982;42.684;23.356;2023-07-13T12:23:23;8.57;;;4.60;;
5912;SDS011;2982;42.684;23.356;2023-07-13T12:26:00;6.30;;;3.95;;
5912;SDS011;2982;42.684;23.356;2023-07-13T12:31:01;7.35;;;3.53;;
5912;SDS011;2982;42.684;23.356;2023-07-13T12:33:32;7.72;;;4.30;;
5912;SDS011;2982;42.684;23.356;2023-07-13T12:36:05;10.35;;;4.78;;
5912;SDS011;2982;42.684;23.356;2023-07-13T12:38:31;5.53;;;4.03;;
5912;SDS011;2982;42.684;23.356;2023-07-13T12:40:57;8.45;;;4.40;;
5912;SDS011;2982;42.684;23.356;2023-07-13T12:43:23;9.00;;;3.80;;
5912;SDS011;2982;42.684;23.356;2023-07-13T12:45:59;11.10;;;4.57;;
5912;SDS011;2982;42.684;23.356;2023-07-13T12:48:27;6.55;;;4.70;;
5912;SDS011;2982;42.684;23.356;2023-07-13T12:50:53;7.20;;;4.30;;
5912;SDS011;2982;42.684;23.356;2023-07-13T12:53:24;8.13;;;4.43;;
5912;SDS011;2982;42.684;23.356;2023-07-13T12:55:54;6.95;;;4.25;;
5912;SDS011;2982;42.684;23.356;2023-07-13T12:58:25;9.63;;;3.58;;
5912;SDS011;2982;42.684;23.356;2023-07-13T13:00:51;5.72;;;3.92;;
5912;SDS011;2982;42.684;23.356;2023-07-13T13:03:22;8.55;;;4.05;;
5912;SDS011;2982;42.684;23.356;2023-07-13T13:05:57;6.82;;;4.75;;
5912;SDS011;2982;42.684;23.356;2023-07-13T13:08:24;11.10;;;5.47;;
5912;SDS011;2982;42.684;23.356;2023-07-13T13:10:49;9.15;;;5.50;;
5912;SDS011;2982;42.684;23.356;2023-07-13T13:13:14;14.85;;;5.93;;
5912;SDS011;2982;42.684;23.356;2023-07-13T13:15:40;6.80;;;5.20;;
5912;SDS011;2982;42.684;23.356;2023-07-13T13:18:10;8.73;;;5.40;;
5912;SDS011;2982;42.684;23.356;2023-07-13T13:20:40;5.55;;;4.95;;
5912;SDS011;2982;42.684;23.356;2023-07-13T13:23:09;7.95;;;6.40;;
5912;SDS011;2982;42.684;23.356;2023-07-13T13:25:37;15.10;;;6.68;;
5912;SDS011;2982;42.684;23.356;2023-07-13T13:28:03;7.68;;;5.00;;
5912;SDS011;2982;42.684;23.356;2023-07-13T13:30:28;7.68;;;5.78;;
5912;SDS011;2982;42.684;23.356;2023-07-13T13:32:53;14.82;;;5.47;;
5912;SDS011;2982;42.684;23.356;2023-07-13T13:35:19;8.30;;;5.13;;
5912;SDS011;2982;42.684;23.356;2023-07-13T13:37:46;8.52;;;5.20;;
5912;SDS011;2982;42.684;23.356;2023-07-13T13:40:15;12.57;;;5.47;;
5912;SDS011;2982;42.684;23.356;2023-07-13T13:42:45;5.82;;;5.32;;
5912;SDS011;2982;42.684;23.356;2023-07-13T13:45:11;7.80;;;6.78;;
5912;SDS011;2982;42.684;23.356;2023-07-13T13:47:37;12.73;;;5.78;;
5912;SDS011;2982;42.684;23.356;2023-07-13T13:50:20;11.13;;;5.85;;
5912;SDS011;2982;42.684;23.356;2023-07-13T13:52:46;5.28;;;4.47;;
5912;SDS011;2982;42.684;23.356;2023-07-13T13:55:16;8.70;;;4.00;;
5912;SDS011;2982;42.684;23.356;2023-07-13T13:57:46;6.43;;;5.03;;
5912;SDS011;2982;42.684;23.356;2023-07-13T14:00:12;5.47;;;3.70;;
5912;SDS011;2982;42.684;23.356;2023-07-13T14:02:40;5.80;;;4.00;;
5912;SDS011;2982;42.684;23.356;2023-07-13T14:05:11;9.90;;;4.60;;
5912;SDS011;2982;42.684;23.356;2023-07-13T14:07:38;8.43;;;4.47;;
5912;SDS011;2982;42.684;23.356;2023-07-13T14:10:11;11.50;;;5.35;;
5912;SDS011;2982;42.684;23.356;2023-07-13T14:12:38;9.05;;;5.32;;
5912;SDS011;2982;42.684;23.356;2023-07-13T14:15:03;10.27;;;5.32;;
5912;SDS011;2982;42.684;23.356;2023-07-13T14:17:29;10.10;;;5.95;;
5912;SDS011;2982;42.684;23.356;2023-07-13T14:19:56;8.63;;;4.32;;
5912;SDS011;2982;42.684;23.356;2023-07-13T14:22:21;6.55;;;4.18;;
5912;SDS011;2982;42.684;23.356;2023-07-13T14:24:46;10.00;;;4.93;;
5912;SDS011;2982;42.684;23.356;2023-07-13T14:27:12;11.55;;;5.18;;
5912;SDS011;2982;42.684;23.356;2023-07-13T14:29:37;10.20;;;4.22;;
5912;SDS011;2982;42.684;23.356;2023-07-13T14:32:03;10.75;;;4.38;;
5912;SDS011;2982;42.684;23.356;2023-07-13T14:34:29;7.07;;;4.38;;
5912;SDS011;2982;42.684;23.356;2023-07-13T14:36:54;5.68;;;3.53;;
5912;SDS011;2982;42.684;23.356;2023-07-13T14:39:22;6.95;;;4.32;;
5912;SDS011;2982;42.684;23.356;2023-07-13T14:41:52;5.60;;;4.13;;
5912;SDS011;2982;42.684;23.356;2023-07-13T14:44:39;11.90;;;4.75;;
5912;SDS011;2982;42.684;23.356;2023-07-13T14:47:04;9.43;;;3.88;;
5912;SDS011;2982;42.684;23.356;2023-07-13T14:49:32;8.15;;;4.30;;
5912;SDS011;2982;42.684;23.356;2023-07-13T14:52:02;6.88;;;3.75;;
5912;SDS011;2982;42.684;23.356;2023-07-13T14:54:40;9.57;;;4.20;;
5912;SDS011;2982;42.684;23.356;2023-07-13T14:57:15;5.65;;;4.10;;
5912;SDS011;2982;42.684;23.356;2023-07-13T14:59:42;17.17;;;4.80;;
5912;SDS011;2982;42.684;23.356;2023-07-13T15:04:53;11.25;;;5.13;;
5912;SDS011;2982;42.684;23.356;2023-07-13T15:07:18;7.97;;;4.07;;
5912;SDS011;2982;42.684;23.356;2023-07-13T15:09:44;7.85;;;3.83;;
5912;SDS011;2982;42.684;23.356;2023-07-13T15:12:09;7.25;;;3.85;;
5912;SDS011;2982;42.684;23.356;2023-07-13T15:14:35;7.13;;;4.47;;
5912;SDS011;2982;42.684;23.356;2023-07-13T15:17:00;14.50;;;5.13;;
5912;SDS011;2982;42.684;23.356;2023-07-13T15:19:26;4.82;;;4.00;;
5912;SDS011;2982;42.684;23.356;2023-07-13T15:21:52;12.80;;;4.72;;
5912;SDS011;2982;42.684;23.356;2023-07-13T15:24:20;7.15;;;4.50;;
5912;SDS011;2982;42.684;23.356;2023-07-13T15:26:46;6.00;;;3.80;;
5912;SDS011;2982;42.684;23.356;2023-07-13T15:29:11;6.30;;;3.67;;
5912;SDS011;2982;42.684;23.356;2023-07-13T15:31:37;6.68;;;4.57;;
5912;SDS011;2982;42.684;23.356;2023-07-13T15:34:03;12.80;;;4.32;;